createdAt,value
2017-05-10T00:00:34.112Z,0
2017-05-10T00:01:44.081Z,0
2017-05-10T00:02:54.353Z,0
2017-05-10T00:04:04.883Z,0
2017-05-10T00:05:14.847Z,0
2017-05-10T00:06:24.817Z,0
2017-05-10T00:07:34.485Z,0
2017-05-10T00:08:44.769Z,0
2017-05-10T00:09:55.287Z,0
2017-05-10T00:11:05.572Z,0
2017-05-10T00:12:15.857Z,0
2017-05-10T00:13:26.144Z,0
2017-05-10T00:14:36.418Z,0
2017-05-10T00:15:46.328Z,0
2017-05-10T00:16:56.613Z,0
2017-05-10T00:18:06.886Z,0
2017-05-10T00:19:17.170Z,0
2017-05-10T00:20:27.138Z,0
2017-05-10T00:21:37.670Z,0
2017-05-10T00:22:47.651Z,0
2017-05-10T00:23:57.937Z,0
2017-05-10T00:25:07.898Z,0
2017-05-10T00:26:17.550Z,0
2017-05-10T00:27:28.088Z,0
2017-05-10T00:28:38.366Z,0
2017-05-10T00:29:48.646Z,0
2017-05-10T00:30:58.626Z,0
2017-05-10T00:32:08.905Z,0
2017-05-10T00:33:19.474Z,0
2017-05-10T00:34:29.447Z,0
2017-05-10T00:35:39.422Z,0
2017-05-10T00:36:49.715Z,0
2017-05-10T00:37:59.989Z,0
2017-05-10T00:39:10.516Z,0
2017-05-10T00:40:20.796Z,0
2017-05-10T00:41:31.075Z,0
2017-05-10T00:42:41.051Z,0
2017-05-10T00:43:51.021Z,0
2017-05-10T00:45:01.254Z,0
2017-05-10T00:46:11.235Z,0
2017-05-10T00:47:21.198Z,0
2017-05-10T00:48:31.497Z,0
2017-05-10T00:49:41.783Z,0
2017-05-10T00:50:52.314Z,0
2017-05-10T00:52:02.595Z,0
2017-05-10T00:53:12.563Z,0
2017-05-10T00:54:22.861Z,0
2017-05-10T00:55:33.140Z,0
2017-05-10T00:56:43.866Z,0
2017-05-10T00:57:53.843Z,0
2017-05-10T00:59:04.137Z,0
2017-05-10T01:00:14.416Z,0
2017-05-10T01:01:24.700Z,0
2017-05-10T01:02:34.918Z,0
2017-05-10T01:03:44.617Z,0
2017-05-10T01:04:54.590Z,0
2017-05-10T01:06:04.565Z,0
2017-05-10T01:07:14.536Z,0
2017-05-10T01:08:25.063Z,0
2017-05-10T01:09:35.043Z,0
2017-05-10T01:10:45.315Z,0
2017-05-10T01:11:55.596Z,0
2017-05-10T01:13:05.893Z,0
2017-05-10T01:14:16.459Z,0
2017-05-10T01:15:26.422Z,0
2017-05-10T01:16:36.704Z,0
2017-05-10T01:17:46.679Z,0
2017-05-10T01:18:56.970Z,0
2017-05-10T01:20:07.497Z,0
2017-05-10T01:21:17.772Z,0
2017-05-10T01:22:28.052Z,0
2017-05-10T01:23:37.706Z,0
2017-05-10T01:24:47.678Z,0
2017-05-10T01:25:57.891Z,0
2017-05-10T01:27:07.863Z,0
2017-05-10T01:28:18.154Z,0
2017-05-10T01:29:28.437Z,0
2017-05-10T01:30:38.728Z,0
2017-05-10T01:31:49.260Z,0
2017-05-10T01:32:59.226Z,0
2017-05-10T01:34:09.198Z,0
2017-05-10T01:35:19.472Z,0
2017-05-10T01:36:29.743Z,0
2017-05-10T01:37:40.305Z,0
2017-05-10T01:38:50.582Z,0
2017-05-10T01:40:00.873Z,0
2017-05-10T01:41:11.157Z,0
2017-05-10T01:42:21.436Z,0
2017-05-10T01:43:31.654Z,0
2017-05-10T01:44:41.635Z,0
2017-05-10T01:45:51.910Z,0
2017-05-10T01:47:01.885Z,0
2017-05-10T01:48:11.851Z,0
2017-05-10T01:49:22.387Z,0
2017-05-10T01:50:32.672Z,0
2017-05-10T01:51:42.628Z,0
2017-05-10T01:52:52.908Z,0
2017-05-10T01:54:03.183Z,0
2017-05-10T01:55:13.705Z,0
2017-05-10T01:56:23.358Z,0
2017-05-10T01:57:33.650Z,0
2017-05-10T01:58:43.939Z,0
2017-05-10T01:59:54.229Z,0
2017-05-10T02:01:04.762Z,0
2017-05-10T02:02:15.044Z,0
2017-05-10T02:03:24.709Z,0
2017-05-10T02:04:34.998Z,0
2017-05-10T02:05:45.275Z,0
2017-05-10T02:06:56.051Z,0
2017-05-10T02:08:06.337Z,0
2017-05-10T02:09:16.328Z,0
2017-05-10T02:10:25.987Z,0
2017-05-10T02:11:35.946Z,0
2017-05-10T02:12:46.186Z,0
2017-05-10T02:13:56.155Z,0
2017-05-10T02:15:06.441Z,0
2017-05-10T02:16:16.725Z,0
2017-05-10T02:17:26.686Z,0
2017-05-10T02:18:37.229Z,0
2017-05-10T02:19:47.505Z,0
2017-05-10T02:20:57.787Z,0
2017-05-10T02:22:07.753Z,0
2017-05-10T02:23:17.727Z,0
2017-05-10T02:24:27.941Z,0
2017-05-10T02:25:37.912Z,0
2017-05-10T02:26:48.203Z,0
2017-05-10T02:27:57.860Z,0
2017-05-10T02:29:08.139Z,0
2017-05-10T02:30:18.679Z,0
2017-05-10T02:31:28.332Z,0
2017-05-10T02:32:38.614Z,0
2017-05-10T02:33:48.577Z,0
2017-05-10T02:34:58.557Z,0
2017-05-10T02:36:09.088Z,0
2017-05-10T02:37:19.361Z,0
2017-05-10T02:38:29.642Z,0
2017-05-10T02:39:39.920Z,0
2017-05-10T02:40:50.197Z,0
2017-05-10T02:42:00.408Z,0
2017-05-10T02:43:10.375Z,0
2017-05-10T02:44:20.677Z,0
2017-05-10T02:45:30.952Z,0
2017-05-10T02:46:41.226Z,0
2017-05-10T02:47:51.451Z,0
2017-05-10T02:49:01.116Z,0
2017-05-10T02:50:11.402Z,0
2017-05-10T02:51:21.910Z,0
2017-05-10T02:52:32.181Z,0
2017-05-10T02:53:42.709Z,0
2017-05-10T02:54:52.371Z,0
2017-05-10T02:56:02.710Z,0
2017-05-10T02:57:12.994Z,0
2017-05-10T02:58:23.277Z,0
2017-05-10T02:59:33.492Z,0
2017-05-10T03:00:43.770Z,0
2017-05-10T03:01:53.745Z,0
2017-05-10T03:03:04.020Z,0
2017-05-10T03:04:14.001Z,0
2017-05-10T03:05:24.527Z,0
2017-05-10T03:06:34.499Z,0
2017-05-10T03:07:44.786Z,0
2017-05-10T03:08:55.063Z,0
2017-05-10T03:10:05.353Z,0
2017-05-10T03:11:15.877Z,0
2017-05-10T03:12:26.169Z,0
2017-05-10T03:13:36.448Z,0
2017-05-10T03:14:46.739Z,0
2017-05-10T03:15:57.013Z,0
2017-05-10T03:17:07.233Z,0
2017-05-10T03:18:17.194Z,0
2017-05-10T03:19:27.486Z,0
2017-05-10T03:20:37.452Z,0
2017-05-10T03:21:48.227Z,0
2017-05-10T03:22:58.472Z,0
2017-05-10T03:24:08.788Z,0
2017-05-10T03:25:18.446Z,0
2017-05-10T03:26:28.421Z,0
2017-05-10T03:27:38.703Z,0
2017-05-10T03:28:48.924Z,0
2017-05-10T03:29:59.209Z,0
2017-05-10T03:31:09.180Z,0
2017-05-10T03:32:19.143Z,0
2017-05-10T03:33:29.431Z,0
2017-05-10T03:34:39.967Z,0
2017-05-10T03:35:50.242Z,0
2017-05-10T03:37:00.523Z,0
2017-05-10T03:38:10.532Z,0
2017-05-10T03:39:20.813Z,0
2017-05-10T03:40:31.343Z,0
2017-05-10T03:41:41.635Z,0
2017-05-10T03:42:51.605Z,0
2017-05-10T03:44:01.594Z,0
2017-05-10T03:45:11.558Z,0
2017-05-10T03:46:21.784Z,0
2017-05-10T03:47:32.058Z,0
2017-05-10T03:48:42.336Z,0
2017-05-10T03:49:52.312Z,0
2017-05-10T03:51:02.584Z,5
2017-05-10T03:52:13.117Z,5
2017-05-10T03:53:23.410Z,5
2017-05-10T03:54:33.685Z,5
2017-05-10T03:55:43.983Z,5
2017-05-10T03:56:54.261Z,5
2017-05-10T03:58:04.496Z,5
2017-05-10T03:59:14.778Z,10
2017-05-10T04:00:25.094Z,10
2017-05-10T04:01:35.373Z,10
2017-05-10T04:02:45.665Z,10
2017-05-10T04:03:56.200Z,10
2017-05-10T04:05:06.488Z,10
2017-05-10T04:06:16.793Z,15
2017-05-10T04:07:27.072Z,15
2017-05-10T04:08:37.112Z,15
2017-05-10T04:09:47.524Z,15
2017-05-10T04:10:57.497Z,15
2017-05-10T04:12:07.476Z,15
2017-05-10T04:13:17.451Z,15
2017-05-10T04:14:27.744Z,15
2017-05-10T04:15:38.282Z,15
2017-05-10T04:16:48.255Z,15
2017-05-10T04:17:57.916Z,15
2017-05-10T04:19:07.886Z,15
2017-05-10T04:20:18.184Z,15
2017-05-10T04:21:28.449Z,15
2017-05-10T04:22:38.730Z,15
2017-05-10T04:23:49.002Z,15
2017-05-10T04:24:59.335Z,15
2017-05-10T04:26:09.604Z,15
2017-05-10T04:27:19.881Z,15
2017-05-10T04:28:30.175Z,20
2017-05-10T04:29:40.453Z,20
2017-05-10T04:30:50.739Z,20
2017-05-10T04:32:01.022Z,20
2017-05-10T04:33:11.551Z,25
2017-05-10T04:34:21.825Z,25
2017-05-10T04:35:32.107Z,25
2017-05-10T04:36:42.383Z,25
2017-05-10T04:37:52.355Z,30
2017-05-10T04:39:02.898Z,30
2017-05-10T04:40:12.874Z,30
2017-05-10T04:41:23.236Z,30
2017-05-10T04:42:33.209Z,30
2017-05-10T04:43:43.175Z,30
2017-05-10T04:44:53.400Z,30
2017-05-10T04:46:03.703Z,30
2017-05-10T04:47:13.991Z,35
2017-05-10T04:48:24.265Z,35
2017-05-10T04:49:34.232Z,35
2017-05-10T04:50:44.456Z,35
2017-05-10T04:51:54.741Z,40
2017-05-10T04:53:05.035Z,40
2017-05-10T04:54:15.325Z,40
2017-05-10T04:55:25.598Z,45
2017-05-10T04:56:36.126Z,45
2017-05-10T04:57:46.413Z,45
2017-05-10T04:58:56.440Z,45
2017-05-10T05:00:06.754Z,45
2017-05-10T05:01:17.062Z,45
2017-05-10T05:02:27.593Z,45
2017-05-10T05:03:37.877Z,40
2017-05-10T05:04:47.842Z,35
2017-05-10T05:05:57.830Z,30
2017-05-10T05:07:08.144Z,25
2017-05-10T05:08:18.378Z,20
2017-05-10T05:09:28.351Z,15
2017-05-10T05:10:38.642Z,15
2017-05-10T05:11:48.937Z,15
2017-05-10T05:12:58.921Z,20
2017-05-10T05:14:09.138Z,25
2017-05-10T05:15:19.424Z,25
2017-05-10T05:16:29.383Z,20
2017-05-10T05:17:39.365Z,25
2017-05-10T05:18:49.660Z,30
2017-05-10T05:19:59.887Z,35
2017-05-10T05:21:10.172Z,50
2017-05-10T05:22:20.182Z,60
2017-05-10T05:23:29.918Z,65
2017-05-10T05:24:40.208Z,65
2017-05-10T05:25:50.750Z,65
2017-05-10T05:27:01.038Z,65
2017-05-10T05:28:11.319Z,60
2017-05-10T05:29:21.598Z,60
2017-05-10T05:30:31.895Z,60
2017-05-10T05:31:42.602Z,60
2017-05-10T05:32:52.597Z,60
2017-05-10T05:34:02.933Z,55
2017-05-10T05:35:13.225Z,55
2017-05-10T05:36:23.187Z,55
2017-05-10T05:37:33.398Z,55
2017-05-10T05:38:43.384Z,55
2017-05-10T05:39:53.058Z,55
2017-05-10T05:41:03.025Z,55
2017-05-10T05:42:13.019Z,55
2017-05-10T05:43:23.573Z,55
2017-05-10T05:44:33.850Z,60
2017-05-10T05:45:44.143Z,60
2017-05-10T05:46:54.419Z,65
2017-05-10T05:48:04.706Z,65
2017-05-10T05:49:15.002Z,70
2017-05-10T05:50:25.000Z,75
2017-05-10T05:51:35.041Z,75
2017-05-10T05:52:45.029Z,80
2017-05-10T05:53:55.313Z,80
2017-05-10T05:55:05.905Z,85
2017-05-10T05:56:15.893Z,85
2017-05-10T05:57:25.556Z,85
2017-05-10T05:58:35.532Z,90
2017-05-10T05:59:45.200Z,90
2017-05-10T06:00:55.726Z,95
2017-05-10T06:02:05.706Z,95
2017-05-10T06:03:15.685Z,95
2017-05-10T06:04:26.020Z,95
2017-05-10T06:05:36.021Z,100
2017-05-10T06:06:46.556Z,105
2017-05-10T06:07:56.549Z,105
2017-05-10T06:09:06.907Z,105
2017-05-10T06:10:16.906Z,105
2017-05-10T06:11:27.189Z,105
2017-05-10T06:12:37.738Z,100
2017-05-10T06:13:48.027Z,95
2017-05-10T06:14:58.330Z,95
2017-05-10T06:16:08.308Z,100
2017-05-10T06:17:18.583Z,100
2017-05-10T06:18:28.815Z,100
2017-05-10T06:19:39.108Z,100
2017-05-10T06:20:49.432Z,100
2017-05-10T06:21:59.720Z,100
2017-05-10T06:23:09.699Z,100
2017-05-10T06:24:20.235Z,100
2017-05-10T06:25:30.233Z,100
2017-05-10T06:26:40.545Z,95
2017-05-10T06:27:50.844Z,95
2017-05-10T06:29:01.142Z,95
2017-05-10T06:30:11.700Z,90
2017-05-10T06:31:21.994Z,90
2017-05-10T06:32:31.989Z,90
2017-05-10T06:33:42.295Z,90
2017-05-10T06:34:52.580Z,95
2017-05-10T06:36:03.136Z,100
2017-05-10T06:37:13.120Z,105
2017-05-10T06:38:23.093Z,110
2017-05-10T06:39:33.399Z,115
2017-05-10T06:40:43.695Z,115
2017-05-10T06:41:54.269Z,115
2017-05-10T06:43:04.556Z,115
2017-05-10T06:44:14.539Z,110
2017-05-10T06:45:24.838Z,115
2017-05-10T06:46:35.122Z,115
2017-05-10T06:47:45.672Z,120
2017-05-10T06:48:55.975Z,125
2017-05-10T06:50:06.281Z,130
2017-05-10T06:51:16.271Z,130
2017-05-10T06:52:26.558Z,135
2017-05-10T06:53:37.109Z,135
2017-05-10T06:54:47.405Z,130
2017-05-10T06:55:57.696Z,130
2017-05-10T06:57:07.668Z,125
2017-05-10T06:58:17.955Z,125
2017-05-10T06:59:28.496Z,125
2017-05-10T07:00:38.800Z,120
2017-05-10T07:01:48.472Z,115
2017-05-10T07:02:58.437Z,110
2017-05-10T07:04:08.122Z,110
2017-05-10T07:05:18.655Z,110
2017-05-10T07:06:28.958Z,110
2017-05-10T07:07:39.255Z,110
2017-05-10T07:08:49.552Z,110
2017-05-10T07:09:59.901Z,105
2017-05-10T07:11:10.124Z,115
2017-05-10T07:12:20.432Z,125
2017-05-10T07:13:30.739Z,135
2017-05-10T07:14:41.038Z,125
2017-05-10T07:15:51.326Z,120
2017-05-10T07:17:01.868Z,115
2017-05-10T07:18:12.164Z,110
2017-05-10T07:19:22.149Z,115
2017-05-10T07:20:31.820Z,130
2017-05-10T07:21:41.808Z,135
2017-05-10T07:22:52.344Z,140
2017-05-10T07:24:02.325Z,135
2017-05-10T07:25:12.307Z,135
2017-05-10T07:26:22.005Z,135
2017-05-10T07:27:32.027Z,135
2017-05-10T07:28:42.568Z,135
2017-05-10T07:29:52.859Z,140
2017-05-10T07:31:03.148Z,140
2017-05-10T07:32:13.469Z,115
2017-05-10T07:33:23.461Z,115
2017-05-10T07:34:34.000Z,125
2017-05-10T07:35:44.296Z,125
2017-05-10T07:36:54.611Z,120
2017-05-10T07:38:04.904Z,130
2017-05-10T07:39:14.887Z,130
2017-05-10T07:40:25.429Z,135
2017-05-10T07:41:35.726Z,135
2017-05-10T07:42:46.053Z,125
2017-05-10T07:43:56.370Z,115
2017-05-10T07:45:06.345Z,135
2017-05-10T07:46:16.567Z,130
2017-05-10T07:47:26.872Z,125
2017-05-10T07:48:37.162Z,135
2017-05-10T07:49:47.500Z,130
2017-05-10T07:50:57.482Z,135
2017-05-10T07:52:07.765Z,130
2017-05-10T07:53:18.095Z,125
2017-05-10T07:54:28.462Z,105
2017-05-10T07:55:38.481Z,110
2017-05-10T07:56:48.786Z,110
2017-05-10T07:57:59.319Z,100
2017-05-10T07:59:09.302Z,105
2017-05-10T08:00:19.632Z,110
2017-05-10T08:01:29.959Z,110
2017-05-10T08:02:40.271Z,125
2017-05-10T08:03:50.565Z,135
2017-05-10T08:05:00.576Z,125
2017-05-10T08:06:10.254Z,110
2017-05-10T08:07:20.252Z,75
2017-05-10T08:08:30.561Z,95
2017-05-10T08:09:41.113Z,95
2017-05-10T08:10:51.413Z,100
2017-05-10T08:12:01.757Z,100
2017-05-10T08:13:12.079Z,105
2017-05-10T08:14:22.378Z,100
2017-05-10T08:15:32.955Z,110
2017-05-10T08:16:43.266Z,125
2017-05-10T08:17:53.574Z,150
2017-05-10T08:19:03.571Z,145
2017-05-10T08:20:13.851Z,140
2017-05-10T08:21:24.410Z,140
2017-05-10T08:22:34.748Z,120
2017-05-10T08:23:45.050Z,120
2017-05-10T08:24:55.333Z,120
2017-05-10T08:26:05.314Z,135
2017-05-10T08:27:15.859Z,135
2017-05-10T08:28:26.182Z,135
2017-05-10T08:29:36.477Z,135
2017-05-10T08:30:46.171Z,135
2017-05-10T08:31:55.848Z,145
2017-05-10T08:33:06.093Z,130
2017-05-10T08:34:16.083Z,110
2017-05-10T08:35:26.126Z,140
2017-05-10T08:36:35.793Z,155
2017-05-10T08:37:46.098Z,125
2017-05-10T08:38:56.353Z,130
2017-05-10T08:40:06.644Z,140
2017-05-10T08:41:16.312Z,140
2017-05-10T08:42:26.293Z,135
2017-05-10T08:43:36.264Z,120
2017-05-10T08:44:46.824Z,145
2017-05-10T08:45:57.121Z,130
2017-05-10T08:47:07.106Z,130
2017-05-10T08:48:17.399Z,125
2017-05-10T08:49:27.074Z,135
2017-05-10T08:50:37.305Z,155
2017-05-10T08:51:47.584Z,150
2017-05-10T08:52:57.895Z,115
2017-05-10T08:54:07.882Z,110
2017-05-10T08:55:18.182Z,130
2017-05-10T08:56:28.711Z,150
2017-05-10T08:57:39.004Z,160
2017-05-10T08:58:49.324Z,150
2017-05-10T08:59:58.996Z,105
2017-05-10T09:01:08.968Z,80
2017-05-10T09:02:19.508Z,95
2017-05-10T09:03:29.822Z,95
2017-05-10T09:04:40.107Z,85
2017-05-10T09:05:50.140Z,100
2017-05-10T09:07:00.422Z,90
2017-05-10T09:08:10.364Z,85
2017-05-10T09:09:20.685Z,100
2017-05-10T09:10:30.348Z,110
2017-05-10T09:11:40.737Z,115
2017-05-10T09:12:51.043Z,105
2017-05-10T09:14:01.589Z,120
2017-05-10T09:15:11.910Z,135
2017-05-10T09:16:22.238Z,155
2017-05-10T09:17:32.247Z,155
2017-05-10T09:18:42.013Z,160
2017-05-10T09:19:52.884Z,140
2017-05-10T09:21:02.948Z,115
2017-05-10T09:22:12.623Z,120
2017-05-10T09:23:22.293Z,150
2017-05-10T09:24:32.588Z,155
2017-05-10T09:25:43.118Z,130
2017-05-10T09:26:53.401Z,110
2017-05-10T09:28:03.733Z,95
2017-05-10T09:29:14.033Z,95
2017-05-10T09:30:24.321Z,95
2017-05-10T09:31:34.864Z,105
2017-05-10T09:32:45.158Z,120
2017-05-10T09:33:55.466Z,145
2017-05-10T09:35:05.450Z,165
2017-05-10T09:36:15.437Z,150
2017-05-10T09:37:26.056Z,160
2017-05-10T09:38:36.375Z,155
2017-05-10T09:39:46.047Z,165
2017-05-10T09:40:55.715Z,175
2017-05-10T09:42:06.022Z,165
2017-05-10T09:43:16.282Z,150
2017-05-10T09:44:26.279Z,160
2017-05-10T09:45:36.573Z,150
2017-05-10T09:46:46.860Z,140
2017-05-10T09:47:57.149Z,130
2017-05-10T09:49:07.681Z,155
2017-05-10T09:50:17.664Z,175
2017-05-10T09:51:28.015Z,165
2017-05-10T09:52:38.005Z,155
2017-05-10T09:53:48.305Z,145
2017-05-10T09:54:58.851Z,140
2017-05-10T09:56:09.143Z,135
2017-05-10T09:57:19.162Z,125
2017-05-10T09:58:29.510Z,145
2017-05-10T09:59:39.866Z,165
2017-05-10T10:00:50.469Z,185
2017-05-10T10:02:00.779Z,195
2017-05-10T10:03:10.737Z,185
2017-05-10T10:04:20.784Z,190
2017-05-10T10:05:31.075Z,170
2017-05-10T10:06:41.610Z,145
2017-05-10T10:07:51.913Z,155
2017-05-10T10:09:02.265Z,150
2017-05-10T10:10:12.235Z,150
2017-05-10T10:11:22.523Z,160
2017-05-10T10:12:33.067Z,145
2017-05-10T10:13:42.734Z,135
2017-05-10T10:14:53.019Z,120
2017-05-10T10:16:03.008Z,115
2017-05-10T10:17:13.039Z,105
2017-05-10T10:18:23.280Z,120
2017-05-10T10:19:33.281Z,145
2017-05-10T10:20:43.576Z,165
2017-05-10T10:21:53.798Z,155
2017-05-10T10:23:04.085Z,155
2017-05-10T10:24:14.323Z,140
2017-05-10T10:25:24.609Z,160
2017-05-10T10:26:34.919Z,175
2017-05-10T10:27:44.896Z,170
2017-05-10T10:28:54.892Z,160
2017-05-10T10:30:04.797Z,125
2017-05-10T10:31:15.073Z,110
2017-05-10T10:32:25.094Z,115
2017-05-10T10:33:35.424Z,130
2017-05-10T10:34:45.426Z,130
2017-05-10T10:35:55.696Z,135
2017-05-10T10:37:05.991Z,150
2017-05-10T10:38:16.302Z,135
2017-05-10T10:39:26.665Z,135
2017-05-10T10:40:36.327Z,135
2017-05-10T10:41:46.557Z,140
2017-05-10T10:42:56.538Z,150
2017-05-10T10:44:06.214Z,140
2017-05-10T10:45:16.318Z,130
2017-05-10T10:46:26.531Z,145
2017-05-10T10:47:37.122Z,170
2017-05-10T10:48:47.482Z,170
2017-05-10T10:49:57.483Z,135
2017-05-10T10:51:07.778Z,115
2017-05-10T10:52:17.834Z,115
2017-05-10T10:53:28.372Z,115
2017-05-10T10:54:38.692Z,115
2017-05-10T10:55:48.984Z,110
2017-05-10T10:56:58.969Z,105
2017-05-10T10:58:09.263Z,115
2017-05-10T10:59:19.815Z,125
2017-05-10T11:00:29.792Z,130
2017-05-10T11:01:40.089Z,135
2017-05-10T11:02:50.382Z,135
2017-05-10T11:04:00.671Z,165
2017-05-10T11:05:10.613Z,180
2017-05-10T11:06:20.589Z,180
2017-05-10T11:07:30.901Z,175
2017-05-10T11:08:41.195Z,180
2017-05-10T11:09:51.507Z,175
2017-05-10T11:11:02.063Z,160
2017-05-10T11:12:12.073Z,150
2017-05-10T11:13:22.367Z,130
2017-05-10T11:14:32.660Z,125
2017-05-10T11:15:42.643Z,125
2017-05-10T11:16:53.284Z,120
2017-05-10T11:18:03.590Z,120
2017-05-10T11:19:13.589Z,110
2017-05-10T11:20:23.583Z,115
2017-05-10T11:21:33.832Z,140
2017-05-10T11:22:44.435Z,145
2017-05-10T11:23:54.721Z,140
2017-05-10T11:25:05.015Z,165
2017-05-10T11:26:15.321Z,200
2017-05-10T11:27:25.317Z,200
2017-05-10T11:28:35.863Z,185
2017-05-10T11:29:46.180Z,170
2017-05-10T11:30:56.186Z,170
2017-05-10T11:32:06.523Z,180
2017-05-10T11:33:16.828Z,185
2017-05-10T11:34:27.358Z,190
2017-05-10T11:35:37.354Z,195
2017-05-10T11:36:47.649Z,170
2017-05-10T11:37:57.636Z,155
2017-05-10T11:39:07.938Z,155
2017-05-10T11:40:18.191Z,150
2017-05-10T11:41:28.204Z,160
2017-05-10T11:42:37.551Z,150
2017-05-10T11:43:47.737Z,135
2017-05-10T11:44:58.038Z,135
2017-05-10T11:46:08.285Z,125
2017-05-10T11:47:18.593Z,115
2017-05-10T11:48:28.892Z,120
2017-05-10T11:49:38.583Z,125
2017-05-10T11:50:48.908Z,150
2017-05-10T11:51:59.476Z,155
2017-05-10T11:53:09.824Z,140
2017-05-10T11:54:20.159Z,120
2017-05-10T11:55:30.487Z,120
2017-05-10T11:56:40.772Z,135
2017-05-10T11:57:51.021Z,150
2017-05-10T11:59:01.337Z,155
2017-05-10T12:00:11.635Z,180
2017-05-10T12:01:21.034Z,170
2017-05-10T12:02:31.355Z,175
2017-05-10T12:03:41.272Z,165
2017-05-10T12:04:50.969Z,155
2017-05-10T12:06:01.293Z,165
2017-05-10T12:07:11.290Z,170
2017-05-10T12:08:21.546Z,165
2017-05-10T12:09:32.122Z,150
2017-05-10T12:10:42.431Z,170
2017-05-10T12:11:52.724Z,185
2017-05-10T12:13:03.020Z,175
2017-05-10T12:14:12.685Z,175
2017-05-10T12:15:23.257Z,175
2017-05-10T12:16:33.564Z,170
2017-05-10T12:17:43.882Z,165
2017-05-10T12:18:53.862Z,145
2017-05-10T12:20:03.849Z,130
2017-05-10T12:21:14.115Z,115
2017-05-10T12:22:24.431Z,110
2017-05-10T12:23:34.094Z,100
2017-05-10T12:24:44.405Z,95
2017-05-10T12:25:54.708Z,110
2017-05-10T12:27:05.247Z,105
2017-05-10T12:28:15.236Z,125
2017-05-10T12:29:25.524Z,145
2017-05-10T12:30:35.198Z,150
2017-05-10T12:31:45.585Z,160
2017-05-10T12:32:56.135Z,160
2017-05-10T12:34:06.440Z,150
2017-05-10T12:35:16.736Z,150
2017-05-10T12:36:27.023Z,135
2017-05-10T12:37:37.343Z,130
2017-05-10T12:38:47.584Z,130
2017-05-10T12:39:57.577Z,120
2017-05-10T12:41:07.563Z,110
2017-05-10T12:42:17.553Z,110
2017-05-10T12:43:27.230Z,110
2017-05-10T12:44:37.778Z,110
2017-05-10T12:45:47.756Z,120
2017-05-10T12:46:57.750Z,135
2017-05-10T12:48:07.734Z,140
2017-05-10T12:49:17.788Z,155
2017-05-10T12:50:28.024Z,170
2017-05-10T12:51:38.336Z,145
2017-05-10T12:52:48.643Z,125
2017-05-10T12:53:58.958Z,125
2017-05-10T12:55:09.266Z,115
2017-05-10T12:56:19.504Z,120
2017-05-10T12:57:29.498Z,130
2017-05-10T12:58:39.805Z,145
2017-05-10T12:59:50.091Z,145
2017-05-10T13:01:00.085Z,130
2017-05-10T13:02:10.657Z,130
2017-05-10T13:03:20.653Z,145
2017-05-10T13:04:30.973Z,145
2017-05-10T13:05:41.282Z,130
2017-05-10T13:06:51.582Z,130
2017-05-10T13:08:02.136Z,115
2017-05-10T13:09:12.483Z,120
2017-05-10T13:10:22.802Z,125
2017-05-10T13:11:32.830Z,130
2017-05-10T13:12:43.119Z,130
2017-05-10T13:13:53.348Z,140
2017-05-10T13:15:03.337Z,140
2017-05-10T13:16:13.655Z,130
2017-05-10T13:17:23.628Z,140
2017-05-10T13:18:33.611Z,155
2017-05-10T13:19:44.163Z,155
2017-05-10T13:20:54.455Z,135
2017-05-10T13:22:04.749Z,140
2017-05-10T13:23:14.730Z,135
2017-05-10T13:24:25.030Z,125
2017-05-10T13:25:34.652Z,125
2017-05-10T13:26:44.933Z,135
2017-05-10T13:27:54.941Z,145
2017-05-10T13:29:05.233Z,135
2017-05-10T13:30:15.207Z,120
2017-05-10T13:31:25.762Z,130
2017-05-10T13:32:36.044Z,140
2017-05-10T13:33:46.021Z,155
2017-05-10T13:34:56.003Z,160
2017-05-10T13:36:06.310Z,155
2017-05-10T13:37:16.553Z,140
2017-05-10T13:38:26.536Z,145
2017-05-10T13:39:36.820Z,155
2017-05-10T13:40:47.120Z,150
2017-05-10T13:41:57.425Z,140
2017-05-10T13:43:08.015Z,115
2017-05-10T13:44:18.001Z,100
2017-05-10T13:45:28.301Z,90
2017-05-10T13:46:38.597Z,90
2017-05-10T13:47:48.896Z,90
2017-05-10T13:48:59.123Z,95
2017-05-10T13:50:09.404Z,105
2017-05-10T13:51:19.695Z,110
2017-05-10T13:52:29.997Z,115
2017-05-10T13:53:40.288Z,110
2017-05-10T13:54:50.223Z,100
2017-05-10T13:56:00.187Z,95
2017-05-10T13:57:10.167Z,95
2017-05-10T13:58:20.460Z,100
2017-05-10T13:59:30.751Z,105
2017-05-10T14:00:41.291Z,100
2017-05-10T14:01:51.571Z,115
2017-05-10T14:03:01.865Z,110
2017-05-10T14:04:12.154Z,100
2017-05-10T14:05:22.433Z,100
2017-05-10T14:06:32.973Z,105
2017-05-10T14:07:42.944Z,105
2017-05-10T14:08:52.625Z,100
2017-05-10T14:10:02.914Z,100
2017-05-10T14:11:13.450Z,100
2017-05-10T14:12:23.676Z,100
2017-05-10T14:13:33.693Z,100
2017-05-10T14:14:43.677Z,100
2017-05-10T14:15:53.996Z,100
2017-05-10T14:17:04.281Z,95
2017-05-10T14:18:14.811Z,90
2017-05-10T14:19:25.096Z,85
2017-05-10T14:20:35.382Z,75
2017-05-10T14:21:45.354Z,70
2017-05-10T14:22:55.662Z,70
2017-05-10T14:24:06.210Z,65
2017-05-10T14:25:16.505Z,65
2017-05-10T14:26:26.785Z,70
2017-05-10T14:27:36.754Z,75
2017-05-10T14:28:47.055Z,80
2017-05-10T14:29:57.635Z,80
2017-05-10T14:31:07.607Z,80
2017-05-10T14:32:17.608Z,80
2017-05-10T14:33:27.302Z,80
2017-05-10T14:34:38.015Z,85
2017-05-10T14:35:48.579Z,90
2017-05-10T14:36:58.874Z,90
2017-05-10T14:38:09.160Z,90
2017-05-10T14:39:19.156Z,90
2017-05-10T14:40:29.148Z,85
2017-05-10T14:41:39.388Z,75
2017-05-10T14:42:49.668Z,65
2017-05-10T14:43:59.645Z,65
2017-05-10T14:45:09.930Z,60
2017-05-10T14:46:19.913Z,60
2017-05-10T14:47:30.446Z,60
2017-05-10T14:48:40.439Z,65
2017-05-10T14:49:50.413Z,60
2017-05-10T14:51:00.698Z,65
2017-05-10T14:52:11.012Z,60
2017-05-10T14:53:21.235Z,60
2017-05-10T14:54:31.538Z,60
2017-05-10T14:55:41.526Z,60
2017-05-10T14:56:51.524Z,60
2017-05-10T14:58:01.820Z,70
2017-05-10T14:59:12.872Z,70
2017-05-10T15:00:23.159Z,80
2017-05-10T15:01:33.450Z,85
2017-05-10T15:02:43.736Z,75
2017-05-10T15:03:54.061Z,70
2017-05-10T15:05:04.604Z,65
2017-05-10T15:06:14.270Z,65
2017-05-10T15:07:24.566Z,70
2017-05-10T15:08:34.849Z,65
2017-05-10T15:09:45.151Z,60
2017-05-10T15:10:55.694Z,70
2017-05-10T15:12:05.667Z,85
2017-05-10T15:13:15.946Z,95
2017-05-10T15:14:25.926Z,95
2017-05-10T15:15:35.922Z,75
2017-05-10T15:16:46.473Z,70
2017-05-10T15:17:56.759Z,70
2017-05-10T15:19:07.051Z,80
2017-05-10T15:20:17.343Z,75
2017-05-10T15:21:27.343Z,85
2017-05-10T15:22:37.877Z,85
2017-05-10T15:23:47.854Z,75
2017-05-10T15:24:57.842Z,85
2017-05-10T15:26:07.817Z,75
2017-05-10T15:27:18.106Z,70
2017-05-10T15:28:28.644Z,85
2017-05-10T15:29:38.625Z,90
2017-05-10T15:30:48.917Z,90
2017-05-10T15:31:59.254Z,95
2017-05-10T15:33:09.534Z,85
2017-05-10T15:34:20.125Z,75
2017-05-10T15:35:30.413Z,75
2017-05-10T15:36:40.698Z,75
2017-05-10T15:37:50.977Z,65
2017-05-10T15:39:01.281Z,60
2017-05-10T15:40:11.820Z,60
2017-05-10T15:41:21.795Z,65
2017-05-10T15:42:32.094Z,60
2017-05-10T15:43:42.114Z,60
2017-05-10T15:44:52.408Z,60
2017-05-10T15:46:02.641Z,65
2017-05-10T15:47:12.923Z,70
2017-05-10T15:48:22.894Z,70
2017-05-10T15:49:33.173Z,70
2017-05-10T15:50:43.457Z,70
2017-05-10T15:51:53.681Z,75
2017-05-10T15:53:03.976Z,80
2017-05-10T15:54:14.257Z,90
2017-05-10T15:55:24.241Z,90
2017-05-10T15:56:34.550Z,90
2017-05-10T15:57:45.080Z,85
2017-05-10T15:58:55.055Z,85
2017-05-10T16:00:05.032Z,90
2017-05-10T16:01:15.332Z,90
2017-05-10T16:02:25.625Z,90
2017-05-10T16:03:36.161Z,90
2017-05-10T16:04:45.835Z,90
2017-05-10T16:05:55.805Z,85
2017-05-10T16:07:06.343Z,80
2017-05-10T16:08:16.325Z,75
2017-05-10T16:09:26.855Z,70
2017-05-10T16:10:37.164Z,70
2017-05-10T16:11:47.449Z,70
2017-05-10T16:12:57.431Z,70
2017-05-10T16:14:07.730Z,70
2017-05-10T16:15:18.262Z,65
2017-05-10T16:16:28.235Z,70
2017-05-10T16:17:38.548Z,60
2017-05-10T16:18:48.844Z,55
2017-05-10T16:19:59.130Z,60
2017-05-10T16:21:09.371Z,70
2017-05-10T16:22:19.665Z,70
2017-05-10T16:23:29.971Z,60
2017-05-10T16:24:39.958Z,50
2017-05-10T16:25:49.982Z,50
2017-05-10T16:27:00.883Z,50
2017-05-10T16:28:11.172Z,45
2017-05-10T16:29:21.160Z,45
2017-05-10T16:30:31.137Z,45
2017-05-10T16:31:41.432Z,45
2017-05-10T16:32:51.966Z,45